Time;durP1;ratioP1;P1;durP2;ratioP2;P2;SDS_P1;SDS_P2;PMS_P1;PMS_P2;Temp;Humidity;BMP_temperature;BMP_pressure;BME280_temperature;BME280_humidity;BME280_pressure;Samples;Min_cycle;Max_cycle;Signal;HPM_P1;HPM_P2
2022/02/20 00:02:50;;;;;;;3.38;0.73;;;;;;;5.81;49.31;99512.25;10417522;28;20091;-72
2022/02/20 00:07:52;;;;;;;6.57;0.90;;;;;;;5.95;49.22;99504.16;10417017;28;20520;-70
2022/02/20 00:12:53;;;;;;;5.15;1.02;;;;;;;5.82;50.30;99500.94;10399404;28;20057;-72
2022/02/20 00:17:57;;;;;;;1.73;0.63;;;;;;;5.82;50.98;99485.28;10417080;28;20049;-72
2022/02/20 00:23:02;;;;;;;3.65;0.98;;;;;;;5.69;52.15;99499.47;10418425;28;20095;-70
2022/02/20 00:28:05;;;;;;;5.00;0.80;;;;;;;5.40;54.56;99487.88;10425883;23;20053;-73
2022/02/20 00:33:07;;;;;;;4.07;1.30;;;;;;;5.16;56.43;99478.75;10424515;28;20050;-74
2022/02/20 00:38:13;;;;;;;2.65;0.80;;;;;;;4.97;58.45;99483.47;10426985;28;20045;-72
2022/02/20 00:43:15;;;;;;;2.53;0.57;;;;;;;4.94;59.31;99487.84;10424301;28;20037;-73
2022/02/20 00:48:20;;;;;;;3.53;1.00;;;;;;;4.78;60.71;99482.94;10408435;28;20127;-73
2022/02/20 00:53:23;;;;;;;3.42;0.55;;;;;;;4.44;64.44;99460.94;10398359;28;20045;-73
2022/02/20 00:58:25;;;;;;;2.83;0.75;;;;;;;4.01;68.50;99445.97;10419041;28;20061;-73
2022/02/20 01:03:27;;;;;;;5.63;0.90;;;;;;;3.94;70.91;99407.94;10417452;28;20046;-73
2022/02/20 01:08:29;;;;;;;4.45;1.10;;;;;;;3.78;71.93;99381.31;10414674;28;20038;-73
2022/02/20 01:13:31;;;;;;;5.18;0.90;;;;;;;3.69;73.42;99366.72;10430497;28;20129;-73
2022/02/20 01:18:35;;;;;;;5.10;1.10;;;;;;;3.56;74.74;99367.78;10434120;28;20120;-73
2022/02/20 01:23:37;;;;;;;2.75;0.70;;;;;;;3.50;75.50;99349.69;10396446;28;20113;-71
2022/02/20 01:28:39;;;;;;;5.30;0.80;;;;;;;3.39;75.90;99354.16;10411108;28;20045;-72
2022/02/20 01:33:42;;;;;;;1.65;0.68;;;;;;;3.47;75.45;99349.72;10471950;28;20045;-72
2022/02/20 01:38:44;;;;;;;5.47;1.13;;;;;;;3.40;75.62;99333.34;10456695;28;20072;-72
2022/02/20 01:43:50;;;;;;;4.18;0.88;;;;;;;3.42;75.21;99309.94;10442953;28;20127;-72
2022/02/20 01:48:52;;;;;;;7.10;0.93;;;;;;;3.35;75.43;99300.53;10454640;28;20143;-73
2022/02/20 01:53:54;;;;;;;3.60;0.93;;;;;;;3.40;74.01;99283.97;10456690;28;20053;-73
2022/02/20 01:58:56;;;;;;;1.27;0.75;;;;;;;3.44;74.90;99283.06;10454116;28;20076;-72
2022/02/20 02:04:33;;;;;;;4.40;0.90;;;;;;;3.34;76.78;99289.28;10375793;28;20044;-72
2022/02/20 02:09:40;;;;;;;3.53;1.27;;;;;;;3.23;78.97;99283.34;10456560;28;20132;-73
2022/02/20 02:15:09;;;;;;;2.80;0.90;;;;;;;3.11;80.73;99263.63;10443988;28;20418;-73
2022/02/20 02:20:20;;;;;;;2.13;0.80;;;;;;;3.13;81.02;99269.66;10454744;28;20421;-73
2022/02/20 02:25:41;;;;;;;2.35;0.88;;;;;;;3.13;82.04;99242.81;10471394;28;20490;-73
2022/02/20 02:31:04;;;;;;;2.13;0.80;;;;;;;3.06;82.85;99259.41;10466958;28;20049;-74
2022/02/20 02:36:08;;;;;;;2.55;0.77;;;;;;;3.22;83.39;99229.69;10449865;28;20045;-73
2022/02/20 02:41:10;;;;;;;2.20;0.50;;;;;;;3.17;83.02;99213.34;10449264;28;20501;-74
2022/02/20 02:46:14;;;;;;;1.00;0.50;;;;;;;3.40;80.46;99184.41;10452340;28;20048;-74
2022/02/20 02:51:17;;;;;;;1.40;0.30;;;;;;;3.83;76.92;99161.13;10450094;28;20048;-73
2022/02/20 02:56:19;;;;;;;1.13;0.40;;;;;;;4.10;74.60;99149.34;10448985;28;20055;-72
2022/02/20 03:01:20;;;;;;;1.33;0.30;;;;;;;4.33;72.66;99150.63;10460249;28;20044;-73
2022/02/20 03:06:24;;;;;;;1.05;0.30;;;;;;;4.62;69.79;99140.47;10451755;28;20072;-72
2022/02/20 03:11:36;;;;;;;1.98;0.40;;;;;;;4.58;72.21;99149.22;10449409;28;20048;-73
2022/02/20 03:16:38;;;;;;;0.47;0.25;;;;;;;4.39;74.99;99135.75;10447666;28;20574;-74
2022/02/20 03:21:41;;;;;;;3.88;0.60;;;;;;;4.27;76.35;99143.81;10466390;28;20036;-74
2022/02/20 03:26:44;;;;;;;2.28;0.57;;;;;;;4.18;77.61;99128.38;10467087;28;20098;-74
2022/02/20 03:31:46;;;;;;;1.00;0.40;;;;;;;4.22;77.99;99124.84;10448105;28;20036;-74
2022/02/20 03:36:48;;;;;;;1.88;0.63;;;;;;;4.16;78.74;99117.16;10428367;28;20111;-72
2022/02/20 03:41:57;;;;;;;1.77;1.00;;;;;;;4.38;76.12;99121.00;10444165;28;20057;-73
2022/02/20 03:47:19;;;;;;;1.95;0.77;;;;;;;4.48;74.56;99125.16;10462332;28;20044;-73
2022/02/20 03:52:31;;;;;;;2.33;0.70;;;;;;;4.76;72.05;99114.13;10439915;28;20127;-74
2022/02/20 03:57:36;;;;;;;1.50;0.55;;;;;;;4.99;69.57;99116.19;10444555;28;20497;-73
2022/02/20 04:02:42;;;;;;;0.90;0.43;;;;;;;5.06;69.14;99126.41;10461088;28;20045;-73
2022/02/20 04:07:48;;;;;;;5.18;0.93;;;;;;;5.07;69.67;99109.03;10444296;28;20045;-73
2022/02/20 04:12:54;;;;;;;2.75;0.82;;;;;;;4.84;71.43;99120.00;10443981;28;20033;-73
2022/02/20 04:17:57;;;;;;;2.05;0.70;;;;;;;4.96;70.70;99113.66;10460332;28;20037;-73
2022/02/20 04:22:58;;;;;;;2.65;0.80;;;;;;;5.06;69.59;99107.34;10442751;28;20464;-73
2022/02/20 04:28:06;;;;;;;1.70;0.80;;;;;;;5.14;69.58;99092.38;10405843;28;1043725;-72
2022/02/20 04:33:10;;;;;;;5.38;0.68;;;;;;;5.17;69.34;99115.72;10429598;28;20124;-72
2022/02/20 04:38:12;;;;;;;3.17;0.70;;;;;;;5.33;68.50;99111.00;10444720;28;20049;-72
2022/02/20 04:43:14;;;;;;;2.60;0.90;;;;;;;5.44;68.26;99110.72;10443634;28;20041;-72
2022/02/20 04:48:18;;;;;;;2.40;1.05;;;;;;;5.45;68.47;99113.31;10442297;28;20049;-72
2022/02/20 04:53:20;;;;;;;2.33;0.60;;;;;;;5.47;69.08;99128.91;10441082;28;20072;-72
2022/02/20 04:58:31;;;;;;;2.42;0.70;;;;;;;5.45;69.65;99147.19;10443568;28;20053;-72
2022/02/20 05:03:34;;;;;;;2.42;0.68;;;;;;;5.36;69.83;99175.22;10445199;28;20137;-73
2022/02/20 05:08:51;;;;;;;4.05;0.90;;;;;;;5.45;70.05;99173.25;10443651;28;20079;-73
2022/02/20 05:14:11;;;;;;;3.33;0.80;;;;;;;5.33;72.46;99191.78;10444876;28;20453;-73
2022/02/20 05:19:13;;;;;;;3.10;0.93;;;;;;;5.18;74.49;99190.41;10428078;28;20052;-73
2022/02/20 05:24:25;;;;;;;3.80;0.93;;;;;;;5.10;75.52;99197.53;10443291;28;20041;-73
2022/02/20 05:29:28;;;;;;;2.22;0.85;;;;;;;4.97;76.74;99215.19;10443265;28;20045;-72
2022/02/20 05:34:32;;;;;;;2.95;1.05;;;;;;;4.95;77.96;99222.16;10443501;28;20041;-73
2022/02/20 05:39:34;;;;;;;5.05;1.10;;;;;;;4.77;80.27;99219.97;10451591;28;20040;-74
2022/02/20 05:44:36;;;;;;;2.92;1.10;;;;;;;4.83;79.49;99237.22;10448539;28;20468;-72
2022/02/20 05:49:38;;;;;;;4.60;1.13;;;;;;;4.76;81.22;99252.09;10465979;28;20049;-72
2022/02/20 05:54:40;;;;;;;5.47;1.40;;;;;;;4.81;80.31;99250.25;10433040;28;20099;-73
2022/02/20 05:59:42;;;;;;;12.30;1.42;;;;;;;4.99;78.35;99259.44;10450215;28;20068;-74
2022/02/20 06:04:48;;;;;;;4.18;1.30;;;;;;;5.15;77.42;99288.63;10452229;28;20448;-73
2022/02/20 06:10:07;;;;;;;5.13;1.35;;;;;;;5.19;77.61;99293.72;10467266;28;20033;-74
2022/02/20 06:15:36;;;;;;;3.60;1.05;;;;;;;5.16;78.71;99300.75;10451507;28;20049;-73
2022/02/20 06:20:55;;;;;;;6.32;1.20;;;;;;;5.03;80.20;99321.84;10452416;28;20048;-73
2022/02/20 06:26:06;;;;;;;2.60;0.98;;;;;;;5.13;77.90;99319.91;10451086;28;20502;-73
2022/02/20 06:31:08;;;;;;;4.18;1.33;;;;;;;5.10;78.11;99319.97;10492041;22;20101;-68
2022/02/20 06:36:14;;;;;;;3.53;1.08;;;;;;;5.12;77.40;99320.78;10548876;28;20562;-69
2022/02/20 06:41:19;;;;;;;2.92;0.90;;;;;;;5.19;77.14;99342.38;10513821;28;20040;-69
2022/02/20 06:46:25;;;;;;;1.60;0.68;;;;;;;5.15;78.41;99374.59;10514416;28;20154;-69
2022/02/20 06:51:39;;;;;;;1.55;0.60;;;;;;;4.84;79.64;99367.38;10514413;28;20099;-69
2022/02/20 06:57:06;;;;;;;1.52;0.50;;;;;;;4.77;78.04;99379.63;10515769;28;20129;-70
2022/02/20 07:02:08;;;;;;;2.85;0.70;;;;;;;4.69;78.80;99383.28;10546318;28;20044;-70
2022/02/20 07:07:09;;;;;;;2.30;0.73;;;;;;;4.85;76.84;99389.06;10547549;28;20485;-70
2022/02/20 07:12:11;;;;;;;1.15;0.55;;;;;;;4.99;76.76;99424.38;10547017;28;20044;-69
2022/02/20 07:17:13;;;;;;;2.38;1.10;;;;;;;5.06;76.81;99412.09;10527854;28;20105;-70
2022/02/20 07:22:14;;;;;;;2.55;1.02;;;;;;;5.17;76.78;99414.47;10546377;28;20040;-70
2022/02/20 07:27:16;;;;;;;1.40;0.80;;;;;;;5.18;77.69;99419.69;10529730;28;20502;-69
2022/02/20 07:32:17;;;;;;;2.10;0.80;;;;;;;5.25;77.63;99430.84;10547496;28;20044;-70
2022/02/20 07:37:19;;;;;;;3.75;1.70;;;;;;;5.26;78.00;99438.59;10547607;28;20052;-70
2022/02/20 07:42:21;;;;;;;1.88;0.98;;;;;;;5.41;76.36;99442.69;10528814;28;20516;-70
2022/02/20 07:47:22;;;;;;;4.97;1.30;;;;;;;5.57;75.08;99458.84;10529917;28;20504;-70
2022/02/20 07:52:27;;;;;;;2.05;1.02;;;;;;;5.62;73.90;99469.19;10527830;28;20040;-70
2022/02/20 07:57:28;;;;;;;3.95;0.80;;;;;;;5.92;70.00;99468.56;10546837;28;20113;-71
2022/02/20 08:02:31;;;;;;;3.55;1.15;;;;;;;5.93;69.20;99487.66;10546141;28;20040;-71
2022/02/20 08:07:33;;;;;;;2.83;0.88;;;;;;;6.05;66.98;99490.88;10545167;28;20035;-70
2022/02/20 08:12:35;;;;;;;3.47;0.93;;;;;;;6.07;66.22;99483.88;10546728;28;20040;-71
2022/02/20 08:17:47;;;;;;;1.63;1.08;;;;;;;6.09;64.13;99483.84;10546591;28;20068;-70
2022/02/20 08:22:49;;;;;;;3.53;0.95;;;;;;;6.17;62.53;99494.13;10547439;28;20040;-70
2022/02/20 08:27:51;;;;;;;1.92;0.85;;;;;;;6.13;64.18;99498.53;10546373;28;20048;-72
2022/02/20 08:32:53;;;;;;;3.38;1.10;;;;;;;6.14;64.94;99508.09;10528338;28;20093;-72
2022/02/20 08:37:55;;;;;;;2.35;0.98;;;;;;;6.10;66.39;99516.00;10544234;28;20077;-69
2022/02/20 08:42:56;;;;;;;5.13;1.30;;;;;;;6.20;66.98;99510.56;10545433;28;20123;-69
2022/02/20 08:47:58;;;;;;;3.17;1.20;;;;;;;6.29;66.82;99512.97;10545489;28;20048;-70
2022/02/20 08:52:59;;;;;;;3.40;1.10;;;;;;;6.46;67.16;99524.75;10542805;28;20054;-69
2022/02/20 08:58:02;;;;;;;2.20;0.90;;;;;;;6.63;66.75;99526.97;10544977;28;20044;-70
2022/02/20 09:03:04;;;;;;;4.10;1.52;;;;;;;6.56;66.78;99523.69;10530735;28;20040;-69
2022/02/20 09:08:05;;;;;;;4.10;1.10;;;;;;;6.63;65.79;99509.56;10545791;28;20465;-69
2022/02/20 09:13:08;;;;;;;4.22;1.40;;;;;;;6.82;64.38;99516.06;10532033;28;20056;-69
2022/02/20 09:18:10;;;;;;;5.03;1.42;;;;;;;6.81;63.51;99522.16;10533300;28;20147;-68
2022/02/20 09:23:12;;;;;;;3.15;0.90;;;;;;;6.88;64.37;99509.81;10549953;28;20048;-69
2022/02/20 09:28:13;;;;;;;2.95;1.30;;;;;;;7.05;63.87;99509.41;10552101;28;20089;-69
2022/02/20 09:33:16;;;;;;;3.45;1.02;;;;;;;7.19;62.80;99502.06;10552521;28;20036;-70
2022/02/20 09:38:17;;;;;;;5.72;1.30;;;;;;;7.26;62.90;99503.63;10551489;28;20044;-69
2022/02/20 09:43:19;;;;;;;2.83;1.20;;;;;;;7.26;62.62;99510.56;10553144;28;20043;-70
2022/02/20 09:48:23;;;;;;;2.63;1.38;;;;;;;7.46;62.56;99507.44;10534699;28;20102;-70
2022/02/20 09:53:26;;;;;;;3.42;1.45;;;;;;;7.46;61.26;99510.91;10551160;28;20105;-69
2022/02/20 09:58:28;;;;;;;2.97;1.15;;;;;;;7.69;60.85;99504.16;10549932;28;20059;-69
2022/02/20 10:03:38;;;;;;;3.20;1.02;;;;;;;7.73;61.60;99509.28;10554337;28;20470;-70
2022/02/20 10:08:44;;;;;;;3.30;0.95;;;;;;;7.88;60.56;99514.97;10551918;28;20505;-70
2022/02/20 10:13:49;;;;;;;1.90;0.80;;;;;;;8.12;60.91;99500.31;10555154;28;20139;-70
2022/02/20 10:18:53;;;;;;;2.63;0.88;;;;;;;8.50;60.23;99500.00;10534422;28;20090;-69
2022/02/20 10:24:16;;;;;;;3.25;1.30;;;;;;;8.54;58.26;99483.28;10548984;28;20466;-70
2022/02/20 10:30:19;;;;;;;4.13;1.15;;;;;;;8.71;57.69;99489.72;10474149;28;20048;-70
2022/02/20 10:35:20;;;;;;;2.30;1.00;;;;;;;8.67;55.39;99493.34;10531131;28;20082;-71
2022/02/20 10:40:26;;;;;;;3.83;1.00;;;;;;;8.92;55.80;99493.41;10549211;28;20044;-69
2022/02/20 10:45:37;;;;;;;4.47;1.00;;;;;;;8.89;54.93;99485.63;10548239;28;20127;-70
2022/02/20 10:50:39;;;;;;;3.47;1.13;;;;;;;8.79;55.58;99480.72;10528783;28;20051;-69
2022/02/20 10:55:42;;;;;;;2.10;0.93;;;;;;;8.86;55.80;99473.50;10547229;28;20105;-71
2022/02/20 11:00:47;;;;;;;3.70;2.13;;;;;;;8.99;55.92;99464.31;10548072;28;20113;-70
2022/02/20 11:05:49;;;;;;;2.75;1.10;;;;;;;8.65;57.35;99476.84;10547916;28;20060;-71
2022/02/20 11:10:52;;;;;;;2.40;0.93;;;;;;;8.30;59.84;99474.41;10548417;28;20400;-70
2022/02/20 11:15:57;;;;;;;2.72;0.90;;;;;;;8.06;63.60;99449.84;10545374;28;20451;-70
2022/02/20 11:21:03;;;;;;;1.40;0.80;;;;;;;8.07;64.11;99446.31;10544290;28;20036;-70
2022/02/20 11:26:06;;;;;;;3.72;1.10;;;;;;;7.94;64.21;99445.00;10543811;28;20043;-70
2022/02/20 11:31:09;;;;;;;3.03;0.93;;;;;;;7.93;64.21;99427.59;10545223;28;20044;-70
2022/02/20 11:36:10;;;;;;;3.08;0.93;;;;;;;7.67;65.87;99430.97;10544322;28;20040;-70
2022/02/20 11:41:12;;;;;;;3.63;1.00;;;;;;;7.43;68.82;99418.59;10526266;28;20056;-70
2022/02/20 11:46:22;;;;;;;4.78;1.42;;;;;;;7.44;71.09;99404.66;10545471;28;20077;-69
2022/02/20 11:51:25;;;;;;;3.22;0.90;;;;;;;7.38;72.03;99383.88;10546050;28;20101;-70
2022/02/20 11:56:27;;;;;;;4.45;1.60;;;;;;;7.36;73.85;99373.50;10545035;28;20101;-69
2022/02/20 12:01:28;;;;;;;2.33;1.17;;;;;;;7.20;75.34;99356.53;10546054;28;20093;-68
2022/02/20 12:06:34;;;;;;;2.95;1.15;;;;;;;7.14;76.37;99341.88;10542033;28;20101;-69
2022/02/20 12:11:44;;;;;;;2.92;0.80;;;;;;;7.34;75.49;99323.84;10542701;28;20036;-69
2022/02/20 12:17:01;;;;;;;3.00;1.08;;;;;;;7.20;77.13;99309.47;10524602;28;20036;-70
2022/02/20 12:22:06;;;;;;;2.38;0.80;;;;;;;7.25;77.68;99299.75;10541410;28;20131;-70
2022/02/20 12:27:13;;;;;;;1.33;0.75;;;;;;;7.26;77.90;99289.25;10541148;28;20048;-69
2022/02/20 12:32:26;;;;;;;1.92;0.55;;;;;;;7.35;77.21;99277.66;10507911;22;20067;-72
2022/02/20 12:37:29;;;;;;;3.05;1.00;;;;;;;7.26;78.79;99272.69;10459369;28;20049;-72
2022/02/20 12:42:36;;;;;;;2.03;0.70;;;;;;;7.41;79.52;99260.94;10458951;28;20129;-71
2022/02/20 12:47:39;;;;;;;;;;;;;;;7.33;79.53;99263.75;10459246;28;20048;-71
2022/02/20 12:52:42;;;;;;;1.55;0.50;;;;;;;7.31;79.53;99250.75;10441121;28;19921;-71
2022/02/20 12:57:45;;;;;;;1.70;0.65;;;;;;;7.34;80.45;99245.41;10458919;28;20079;-71
2022/02/20 13:02:52;;;;;;;1.40;0.50;;;;;;;7.30;79.61;99229.88;10442476;28;20039;-72
2022/02/20 13:08:01;;;;;;;1.38;0.63;;;;;;;7.39;80.93;99220.88;10459317;28;20103;-73
2022/02/20 13:13:11;;;;;;;5.68;3.78;;;;;;;7.42;80.26;99205.94;10423704;28;20483;-72
2022/02/20 13:18:17;;;;;;;1.13;0.63;;;;;;;7.40;80.96;99188.63;10458813;28;20059;-72
2022/02/20 13:23:34;;;;;;;0.95;0.40;;;;;;;7.57;79.09;99183.69;10440016;28;20080;-71
2022/02/20 13:28:43;;;;;;;0.70;0.40;;;;;;;7.52;79.22;99165.53;10440169;28;20053;-71
2022/02/20 13:33:54;;;;;;;0.35;0.30;;;;;;;7.61;78.41;99163.50;10440379;28;20091;-72
2022/02/20 13:39:10;;;;;;;0.43;0.35;;;;;;;7.71;76.45;99162.31;10458532;28;20063;-72
2022/02/20 13:44:23;;;;;;;0.65;0.20;;;;;;;7.81;75.55;99143.63;10459492;28;20045;-71
2022/02/20 13:49:25;;;;;;;0.30;0.25;;;;;;;7.86;74.45;99145.22;10458315;28;20041;-71
2022/02/20 13:54:37;;;;;;;0.47;0.22;;;;;;;7.82;76.16;99129.63;10441131;28;20463;-71
2022/02/20 13:59:38;;;;;;;1.38;0.30;;;;;;;7.88;74.32;99125.06;10461408;28;20053;-70
2022/02/20 14:04:48;;;;;;;0.95;0.30;;;;;;;7.94;74.79;99130.13;10447720;28;20049;-71
2022/02/20 14:09:53;;;;;;;0.55;0.20;;;;;;;8.00;74.77;99115.03;10448040;28;20047;-71
2022/02/20 14:15:07;;;;;;;0.22;0.20;;;;;;;8.04;75.14;99108.78;10462262;28;20075;-72
2022/02/20 14:20:12;;;;;;;0.87;0.33;;;;;;;8.00;75.01;99088.84;10446984;28;20152;-72
2022/02/20 14:25:15;;;;;;;0.95;0.45;;;;;;;8.01;74.54;99095.81;10465044;28;20053;-71
2022/02/20 14:30:32;;;;;;;0.90;0.20;;;;;;;8.06;74.50;99059.88;10466100;28;20051;-70
2022/02/20 14:35:34;;;;;;;;;;;;;;;8.13;73.78;99075.31;10448167;28;20049;-71
2022/02/20 14:40:36;;;;;;;0.50;0.30;;;;;;;8.16;73.57;99076.06;10458981;28;19920;-72
2022/02/20 14:45:39;;;;;;;0.93;0.28;;;;;;;8.23;72.23;99087.16;10416373;28;20065;-72
2022/02/20 14:50:41;;;;;;;0.43;0.30;;;;;;;8.23;72.39;99079.31;10426534;28;20414;-72
2022/02/20 14:55:43;;;;;;;0.70;0.20;;;;;;;8.27;71.40;99073.88;10446548;28;20052;-71
2022/02/20 15:00:44;;;;;;;0.40;0.10;;;;;;;8.39;70.76;99079.63;10412671;28;20491;-71
2022/02/20 15:05:47;;;;;;;0.52;0.30;;;;;;;8.52;69.05;99066.00;10404519;28;20045;-72
2022/02/20 15:10:49;;;;;;;0.43;0.25;;;;;;;8.67;68.02;99053.19;10421379;28;20049;-70
2022/02/20 15:15:50;;;;;;;0.20;0.20;;;;;;;8.62;67.89;99058.63;10439331;28;20041;-71
2022/02/20 15:20:52;;;;;;;0.45;0.28;;;;;;;8.61;67.77;99037.75;10446529;28;20091;-71
2022/02/20 15:25:56;;;;;;;0.43;0.20;;;;;;;8.66;67.06;99033.16;10464541;28;20049;-70
2022/02/20 15:30:58;;;;;;;0.52;0.20;;;;;;;8.65;67.69;99026.22;10463828;28;20091;-72
2022/02/20 15:35:59;;;;;;;0.43;0.20;;;;;;;8.67;66.70;99006.03;10462162;28;20049;-71
2022/02/20 15:41:01;;;;;;;0.43;0.13;;;;;;;8.68;66.80;99008.63;10462091;28;20040;-72
2022/02/20 15:46:03;;;;;;;0.25;0.25;;;;;;;8.68;66.80;98989.44;10462051;28;20087;-72
2022/02/20 15:51:05;;;;;;;0.13;0.10;;;;;;;8.71;66.16;98998.00;10436514;28;20041;-71
2022/02/20 15:56:06;;;;;;;0.65;0.30;;;;;;;8.67;66.65;98985.94;10421957;28;20099;-72
2022/02/20 16:01:09;;;;;;;0.40;0.20;;;;;;;8.67;65.92;98974.59;10420733;28;20091;-71
2022/02/20 16:06:11;;;;;;;0.43;0.30;;;;;;;8.67;65.87;98988.56;10420266;28;20053;-72
2022/02/20 16:11:14;;;;;;;1.35;0.30;;;;;;;8.63;66.42;98989.59;10419221;28;20047;-72
2022/02/20 16:16:18;;;;;;;0.63;0.40;;;;;;;8.53;66.84;99001.38;10401367;28;20041;-71
2022/02/20 16:21:20;;;;;;;0.30;0.20;;;;;;;8.43;67.16;98966.00;10451025;28;20041;-71
2022/02/20 16:26:22;;;;;;;0.75;0.30;;;;;;;8.42;67.41;98975.63;10435845;28;20053;-71
2022/02/20 16:31:26;;;;;;;0.50;0.30;;;;;;;8.35;67.11;98974.97;10435363;28;20043;-71
2022/02/20 16:36:27;;;;;;;0.35;0.35;;;;;;;8.36;66.96;98970.56;10400534;28;20064;-71
2022/02/20 16:41:29;;;;;;;1.25;0.40;;;;;;;8.44;66.80;98960.69;10436220;28;20049;-71
2022/02/20 16:46:34;;;;;;;0.63;0.40;;;;;;;8.38;67.26;98954.84;10458556;28;20045;-72
2022/02/20 16:51:36;;;;;;;0.45;0.30;;;;;;;8.42;67.10;98954.66;10440588;28;20453;-72
2022/02/20 16:56:37;;;;;;;0.20;0.20;;;;;;;8.38;67.28;98929.50;10455153;28;20065;-72
2022/02/20 17:01:39;;;;;;;0.35;0.20;;;;;;;8.56;66.44;98936.63;10416186;28;20088;-71
2022/02/20 17:06:41;;;;;;;0.40;0.30;;;;;;;8.52;66.92;98919.31;10417418;28;20041;-71
2022/02/20 17:11:42;;;;;;;0.68;0.28;;;;;;;8.59;66.27;98920.78;10382669;28;20392;-71
2022/02/20 17:16:44;;;;;;;0.40;0.30;;;;;;;8.74;65.92;98902.72;10421614;28;20498;-71
2022/02/20 17:21:46;;;;;;;0.28;0.20;;;;;;;8.82;65.51;98891.00;10434847;28;20041;-71
2022/02/20 17:26:47;;;;;;;0.50;0.25;;;;;;;8.67;66.46;98882.91;10416887;28;20052;-71
2022/02/20 17:31:49;;;;;;;0.30;0.20;;;;;;;8.80;65.71;98887.56;10431858;28;20136;-73
2022/02/20 17:36:51;;;;;;;0.40;0.40;;;;;;;8.87;65.59;98890.78;10460601;28;20072;-70
2022/02/20 17:41:54;;;;;;;0.77;0.60;;;;;;;8.87;65.50;98885.56;10442818;28;20049;-70
2022/02/20 17:46:55;;;;;;;0.77;0.40;;;;;;;8.88;65.23;98853.19;10461878;28;20402;-71
2022/02/20 17:51:57;;;;;;;1.08;0.25;;;;;;;8.93;65.08;98855.59;10466273;28;20037;-72
2022/02/20 17:56:59;;;;;;;0.68;0.20;;;;;;;8.97;64.83;98851.94;10448259;28;20079;-71
2022/02/20 18:02:00;;;;;;;0.32;0.20;;;;;;;9.01;64.83;98849.09;10464591;28;20045;-72
2022/02/20 18:07:04;;;;;;;1.05;0.30;;;;;;;8.99;65.14;98837.00;10464698;28;20521;-72
2022/02/20 18:12:07;;;;;;;0.45;0.40;;;;;;;8.99;65.92;98832.59;10447104;28;20037;-72
2022/02/20 18:17:09;;;;;;;0.63;0.32;;;;;;;8.93;66.07;98811.88;10445647;28;20056;-72
2022/02/20 18:22:14;;;;;;;1.10;0.40;;;;;;;8.91;66.56;98816.38;10464936;28;20441;-72
2022/02/20 18:27:17;;;;;;;0.93;0.30;;;;;;;8.97;65.98;98821.31;10446581;28;20051;-73
2022/02/20 18:32:18;;;;;;;0.50;0.20;;;;;;;8.98;66.17;98817.78;10460981;23;20053;-72
2022/02/20 18:37:20;;;;;;;0.88;0.30;;;;;;;9.04;66.14;98811.44;10449911;28;20560;-71
2022/02/20 18:42:21;;;;;;;0.55;0.30;;;;;;;8.98;66.28;98806.44;10449334;28;20049;-72
2022/02/20 18:47:23;;;;;;;0.45;0.30;;;;;;;8.89;67.51;98812.09;10450324;28;20055;-71
2022/02/20 18:52:25;;;;;;;1.08;0.30;;;;;;;8.80;68.40;98814.19;10450791;28;20045;-71
2022/02/20 18:57:27;;;;;;;0.95;0.40;;;;;;;8.81;69.25;98804.59;10452397;28;20048;-73
2022/02/20 19:02:31;;;;;;;0.52;0.30;;;;;;;8.70;70.06;98791.94;10468536;28;20398;-72
2022/02/20 19:07:34;;;;;;;1.67;0.40;;;;;;;8.64;71.58;98784.38;10450092;28;20045;-72
2022/02/20 19:12:36;;;;;;;0.80;0.40;;;;;;;8.45;73.03;98760.72;10470701;28;20347;-72
2022/02/20 19:17:38;;;;;;;1.30;0.40;;;;;;;8.62;72.17;98762.63;10450838;28;20051;-71
2022/02/20 19:22:40;;;;;;;0.68;0.30;;;;;;;8.45;73.77;98750.25;10468019;28;20140;-71
2022/02/20 19:27:43;;;;;;;0.88;0.30;;;;;;;8.56;72.84;98740.16;10447144;28;20060;-73
2022/02/20 19:32:45;;;;;;;1.77;0.50;;;;;;;8.59;72.17;98734.81;10463389;28;20047;-72
2022/02/20 19:37:47;;;;;;;2.45;0.60;;;;;;;8.66;71.88;98730.13;10463451;28;20060;-72
2022/02/20 19:42:51;;;;;;;0.55;0.40;;;;;;;8.67;72.46;98721.34;10464923;28;20045;-72
2022/02/20 19:47:53;;;;;;;0.85;0.40;;;;;;;8.58;73.60;98706.03;10464580;28;20445;-73
2022/02/20 19:52:55;;;;;;;0.73;0.40;;;;;;;8.58;72.82;98683.31;10462148;28;20041;-73
2022/02/20 19:57:57;;;;;;;0.43;0.25;;;;;;;8.65;71.40;98668.19;10461724;28;20040;-73
2022/02/20 20:02:59;;;;;;;0.98;0.45;;;;;;;8.82;70.30;98665.66;10464821;28;20463;-72
2022/02/20 20:08:06;;;;;;;1.20;0.50;;;;;;;8.89;69.63;98665.34;10445960;28;20506;-72
2022/02/20 20:13:07;;;;;;;1.08;0.40;;;;;;;8.83;70.42;98645.53;10443653;28;20494;-72
2022/02/20 20:18:09;;;;;;;0.77;0.43;;;;;;;8.88;70.43;98630.44;10444019;28;20052;-73
2022/02/20 20:23:11;;;;;;;1.05;0.50;;;;;;;8.83;70.71;98611.47;10428153;28;20037;-73
2022/02/20 20:28:12;;;;;;;1.33;0.40;;;;;;;8.74;72.13;98607.50;10450406;28;20060;-73
2022/02/20 20:33:14;;;;;;;2.20;0.50;;;;;;;8.75;71.98;98597.88;10465639;28;20091;-73
2022/02/20 20:38:17;;;;;;;1.13;0.50;;;;;;;8.71;72.05;98565.72;10466745;28;20037;-73
2022/02/20 20:43:18;;;;;;;0.60;0.30;;;;;;;8.83;71.53;98573.00;10449278;28;20121;-73
2022/02/20 20:48:20;;;;;;;1.25;0.30;;;;;;;8.89;70.96;98568.38;10451746;28;20447;-71
2022/02/20 20:53:23;;;;;;;1.83;0.47;;;;;;;8.79;71.35;98563.59;10449756;28;20045;-73
2022/02/20 20:58:25;;;;;;;1.17;0.30;;;;;;;9.04;69.22;98544.91;10467516;28;20072;-73
2022/02/20 21:03:27;;;;;;;0.57;0.45;;;;;;;9.05;69.07;98530.03;10452950;28;20049;-72
2022/02/20 21:08:29;;;;;;;0.63;0.20;;;;;;;9.05;68.99;98517.78;10472192;28;20053;-72
2022/02/20 21:13:33;;;;;;;1.02;0.32;;;;;;;9.10;68.94;98502.66;10456111;28;20041;-73
2022/02/20 21:18:34;;;;;;;0.40;0.20;;;;;;;9.08;68.92;98496.66;10470169;28;20053;-73
2022/02/20 21:23:36;;;;;;;0.45;0.30;;;;;;;9.03;69.98;98475.09;10469877;28;20111;-73
2022/02/20 21:28:38;;;;;;;0.50;0.20;;;;;;;9.00;70.25;98471.75;10469186;28;20116;-73
2022/02/20 21:33:41;;;;;;;0.38;0.15;;;;;;;8.92;71.50;98460.81;10471450;28;20102;-72
2022/02/20 21:38:43;;;;;;;0.55;0.20;;;;;;;8.78;72.51;98437.94;10467883;28;20051;-73
2022/02/20 21:43:45;;;;;;;0.68;0.10;;;;;;;8.92;71.21;98426.75;10450153;28;20044;-73
2022/02/20 21:48:53;;;;;;;0.30;0.15;;;;;;;9.03;70.46;98414.81;10468108;28;20503;-73
2022/02/20 21:53:59;;;;;;;0.10;0.10;;;;;;;8.98;71.38;98415.94;10452847;28;20484;-74
2022/02/20 21:59:02;;;;;;;0.85;0.20;;;;;;;8.99;71.36;98389.69;10468650;28;20060;-72
2022/02/20 22:04:04;;;;;;;0.40;0.10;;;;;;;9.05;71.56;98394.59;10468454;28;20041;-73
2022/02/20 22:09:06;;;;;;;0.35;0.20;;;;;;;9.09;70.52;98371.69;10450587;28;20057;-73
2022/02/20 22:14:08;;;;;;;0.28;0.10;;;;;;;9.08;71.51;98362.16;10471644;28;20041;-73
2022/02/20 22:19:09;;;;;;;0.30;0.13;;;;;;;9.11;70.68;98335.75;10451089;28;20436;-73
2022/02/20 22:24:12;;;;;;;0.30;0.10;;;;;;;9.08;70.72;98330.69;10449181;28;20032;-73
2022/02/20 22:29:13;;;;;;;0.10;0.10;;;;;;;9.10;70.96;98311.31;10448996;28;20410;-73
2022/02/20 22:34:16;;;;;;;0.57;0.10;;;;;;;9.20;68.78;98274.13;10447441;28;20073;-72
2022/02/20 22:39:18;;;;;;;0.10;0.10;;;;;;;9.31;68.10;98284.88;10449103;28;20076;-73
2022/02/20 22:44:21;;;;;;;0.20;0.10;;;;;;;9.38;67.22;98278.34;10464134;28;20041;-73
2022/02/20 22:49:23;;;;;;;0.10;0.00;;;;;;;9.55;65.48;98275.66;10463579;28;20051;-72
2022/02/20 22:54:27;;;;;;;0.20;0.08;;;;;;;9.47;66.06;98246.38;10430268;28;20564;-72
2022/02/20 22:59:29;;;;;;;0.10;0.10;;;;;;;9.54;64.94;98224.13;10465892;28;20045;-72
2022/02/20 23:04:31;;;;;;;0.40;0.10;;;;;;;9.66;64.51;98211.25;10445571;28;20124;-72
2022/02/20 23:09:34;;;;;;;0.20;0.10;;;;;;;9.74;62.90;98198.53;10463564;28;20061;-71
2022/02/20 23:14:35;;;;;;;0.65;0.05;;;;;;;9.76;64.25;98207.16;10464147;28;20115;-73
2022/02/20 23:19:37;;;;;;;0.10;0.10;;;;;;;9.76;64.01;98207.16;10464556;28;20558;-73
2022/02/20 23:24:39;;;;;;;0.20;0.10;;;;;;;9.80;63.86;98191.16;10427895;28;20056;-72
2022/02/20 23:29:40;;;;;;;0.52;0.20;;;;;;;9.74;65.69;98203.78;10462354;28;20049;-73
2022/02/20 23:35:03;;;;;;;0.35;0.10;;;;;;;9.54;66.81;98174.28;10461264;28;20044;-72
2022/02/20 23:40:08;;;;;;;0.82;0.20;;;;;;;9.53;66.24;98167.38;10461151;28;20457;-73
2022/02/20 23:45:12;;;;;;;0.63;0.15;;;;;;;9.59;65.78;98146.00;10444050;28;20124;-73
2022/02/20 23:50:16;;;;;;;0.40;0.10;;;;;;;9.63;65.72;98133.56;10461761;28;20071;-71
2022/02/20 23:55:19;;;;;;;0.30;0.20;;;;;;;9.69;65.39;98142.84;10442731;28;20041;-71
